KCDD

Scotts Seaplane Base

Crane Lake, Minnesota, USA
METAR KCDD 161906Z AUTO 30011G19KT 243V343 10SM CLR 00/M07 A2994 RMK AO2
Observed Flight Rules
Dec-16 @ 19:06 UTC (41 minutes ago) Visual Flight Rules
Wind Visibility Clouds
300° at 11 knots
 Gusting to 19 knots
10 miles
  • Clear skies
Temperatures Readings
Current 0°C / 32°F
Dewpoint -7°C / 19°F
Humidity 60%
Altimeter 29.94" Hg
Pressure 1014 hPa
Elevation 341
METAR KCDD 161906Z AUTO 30011G19KT 243V343 10SM CLR 00/M07 A2994 RMK AO2
Observed Flight Rules
Dec-16 @ 19:06 UTC
(41 minutes ago)
VFR
Wind Visibility
300° at 11 knots
 Gusting to 19 knots
10 miles
Clouds
  • Clear skies
Temperature Dewpoint
0°C / 32°F -7°C / 19°F
Humidity Altimeter Pressure
60% 29.94" Hg 1014 hPa